Time;durP1;ratioP1;P1;durP2;ratioP2;P2;SDS_P1;SDS_P2;PMS_P1;PMS_P2;Temp;Humidity;BMP_temperature;BMP_pressure;BME280_temperature;BME280_humidity;BME280_pressure;Samples;Min_cycle;Max_cycle;Signal;HPM_P1;HPM_P2
2021/04/16 12:59:07;;;;;;;2.08;1.13;;;;;;;;;;5154279;27;20297;-77
2021/04/16 13:01:33;;;;;;;2.40;1.25;;;;;;;;;;5150121;27;20033;-79
2021/04/16 13:03:59;;;;;;;1.73;1.10;;;;;;;;;;5147049;27;20681;-78
2021/04/16 13:06:28;;;;;;;1.40;0.93;;;;;;;;;;5150832;27;20105;-78
2021/04/16 13:08:54;;;;;;;1.45;1.00;;;;;;;;;;5150808;27;20030;-78
2021/04/16 13:11:20;;;;;;;2.53;1.30;;;;;;;;;;5148491;27;20027;-78
2021/04/16 13:13:46;;;;;;;3.25;1.70;;;;;;;;;;5150495;27;20547;-77
2021/04/16 13:16:13;;;;;;;3.85;1.20;;;;;;;;;;5150250;27;20035;-77
2021/04/16 13:18:43;;;;;;;1.70;0.98;;;;;;;;;;5149679;27;20050;-77
2021/04/16 13:21:15;;;;;;;4.65;0.70;;;;;;;;;;5149709;27;20023;-77
2021/04/16 13:23:42;;;;;;;2.00;1.05;;;;;;;;;;5169171;27;20026;-77
2021/04/16 13:26:08;;;;;;;7.95;1.30;;;;;;;;;;5170897;27;20091;-77
2021/04/16 13:28:34;;;;;;;1.77;1.17;;;;;;;;;;5160598;27;20015;-77
2021/04/16 13:31:00;;;;;;;1.90;1.00;;;;;;;;;;5149533;27;20515;-78
2021/04/16 13:33:26;;;;;;;1.58;1.00;;;;;;;;;;5149643;27;20509;-78
2021/04/16 13:35:56;;;;;;;5.38;1.05;;;;;;;;;;5149910;27;20038;-77
2021/04/16 13:38:25;;;;;;;1.60;1.17;;;;;;;;;;5148569;27;20030;-77
2021/04/16 13:40:53;;;;;;;3.25;2.20;;;;;;;;;;5149522;27;20054;-78
2021/04/16 13:43:19;;;;;;;9.20;4.03;;;;;;;;;;5131508;27;20027;-78
2021/04/16 13:45:45;;;;;;;1.77;1.20;;;;;;;;;;5149859;27;20364;-78
2021/04/16 13:48:13;;;;;;;1.35;0.95;;;;;;;;;;5149513;27;20029;-77
2021/04/16 13:50:39;;;;;;;1.58;1.02;;;;;;;;;;5149330;27;20054;-77
2021/04/16 13:53:05;;;;;;;2.35;0.93;;;;;;;;;;5148417;27;20121;-77
2021/04/16 13:55:31;;;;;;;2.97;1.08;;;;;;;;;;5149052;27;20069;-77
2021/04/16 13:57:57;;;;;;;1.58;1.10;;;;;;;;;;5151347;27;20050;-78
2021/04/16 14:00:25;;;;;;;1.88;1.08;;;;;;;;;;5148022;27;20110;-78
2021/04/16 14:02:53;;;;;;;1.73;1.27;;;;;;;;;;5148175;27;20031;-77
2021/04/16 14:05:29;;;;;;;1.70;1.00;;;;;;;;;;5149412;27;20011;-77
2021/04/16 14:07:58;;;;;;;1.73;1.30;;;;;;;;;;5149716;27;20106;-77
2021/04/16 14:10:25;;;;;;;3.08;1.33;;;;;;;;;;5133894;27;20426;-77
2021/04/16 14:12:52;;;;;;;4.47;0.85;;;;;;;;;;5137991;27;20035;-77
2021/04/16 14:15:19;;;;;;;4.00;0.70;;;;;;;;;;5136063;27;20471;-76
2021/04/16 14:17:46;;;;;;;1.42;1.00;;;;;;;;;;5134797;27;20117;-77
2021/04/16 14:20:25;;;;;;;1.40;0.82;;;;;;;;;;5135133;27;20463;-77
2021/04/16 14:22:52;;;;;;;2.63;1.00;;;;;;;;;;5135186;27;20084;-77
2021/04/16 14:25:28;;;;;;;1.55;1.00;;;;;;;;;;5135312;27;20031;-77
2021/04/16 14:27:54;;;;;;;1.40;0.85;;;;;;;;;;5135418;27;20084;-77
2021/04/16 14:30:28;;;;;;;3.70;1.10;;;;;;;;;;5133432;27;20031;-77
2021/04/16 14:32:55;;;;;;;2.28;1.00;;;;;;;;;;5138573;27;20031;-76
2021/04/16 14:35:22;;;;;;;1.27;0.80;;;;;;;;;;5130660;27;20043;-75
2021/04/16 14:37:48;;;;;;;4.40;0.90;;;;;;;;;;5140307;27;20046;-75
2021/04/16 14:40:16;;;;;;;4.97;1.10;;;;;;;;;;5143370;27;20042;-75
2021/04/16 14:42:42;;;;;;;2.58;0.85;;;;;;;;;;5133006;27;20023;-76
2021/04/16 14:45:10;;;;;;;1.65;1.17;;;;;;;;;;5148691;27;20027;-76
2021/04/16 14:47:36;;;;;;;1.60;1.10;;;;;;;;;;5148444;27;20023;-75
2021/04/16 14:50:03;;;;;;;1.90;1.08;;;;;;;;;;5134788;27;20015;-76
2021/04/16 14:52:29;;;;;;;2.42;1.20;;;;;;;;;;5131525;27;20023;-75
2021/04/16 14:54:56;;;;;;;2.95;1.13;;;;;;;;;;5128284;27;20599;-76
2021/04/16 14:57:24;;;;;;;1.73;1.10;;;;;;;;;;5132418;27;20019;-77
2021/04/16 14:59:51;;;;;;;1.73;1.10;;;;;;;;;;5133188;27;20023;-74
2021/04/16 15:02:17;;;;;;;1.73;1.25;;;;;;;;;;5133092;27;20027;-73
2021/04/16 15:04:43;;;;;;;1.73;1.00;;;;;;;;;;5130415;27;20081;-75
2021/04/16 15:07:11;;;;;;;2.25;1.20;;;;;;;;;;5147225;27;20022;-75
2021/04/16 15:09:45;;;;;;;3.30;1.60;;;;;;;;;;5161250;27;20030;-75
2021/04/16 15:12:12;;;;;;;3.10;1.45;;;;;;;;;;5163200;27;20033;-76
2021/04/16 15:14:39;;;;;;;3.72;1.60;;;;;;;;;;5153184;27;20034;-76
2021/04/16 15:17:05;;;;;;;1.23;0.90;;;;;;;;;;5151481;27;20027;-73
2021/04/16 15:19:34;;;;;;;1.27;0.90;;;;;;;;;;5136649;27;20031;-73
2021/04/16 15:22:11;;;;;;;2.55;1.40;;;;;;;;;;5129316;27;20403;-73
2021/04/16 15:24:38;;;;;;;2.25;1.00;;;;;;;;;;5131269;27;20023;-74
2021/04/16 15:27:05;;;;;;;2.45;1.48;;;;;;;;;;5131312;27;20047;-74
2021/04/16 15:29:34;;;;;;;2.95;1.40;;;;;;;;;;5128345;27;20031;-74
2021/04/16 15:32:00;;;;;;;5.70;1.65;;;;;;;;;;5130321;27;20577;-76
2021/04/16 15:47:58;;;;;;;2.53;1.40;;;;;;;;;;5113790;27;20132;-76
2021/04/16 15:50:30;;;;;;;6.22;3.75;;;;;;;;;;5118057;27;20388;-77
2021/04/16 15:52:56;;;;;;;5.40;3.53;;;;;;;;;;5127230;27;20019;-77
2021/04/16 15:55:22;;;;;;;7.65;1.80;;;;;;;;;;5129286;27;20862;-77
2021/04/16 15:57:48;;;;;;;1.75;1.17;;;;;;;;;;5127783;27;20023;-77
2021/04/16 16:00:17;;;;;;;2.15;1.00;;;;;;;;;;5128489;27;20020;-76
2021/04/16 16:02:43;;;;;;;3.53;1.75;;;;;;;;;;5130352;27;20024;-79
2021/04/16 16:05:09;;;;;;;2.50;1.52;;;;;;;;;;5136261;27;20585;-81
2021/04/16 16:07:35;;;;;;;9.88;2.88;;;;;;;;;;5154731;27;20126;-79
2021/04/16 16:10:01;;;;;;;4.20;2.10;;;;;;;;;;5152125;27;20062;-79
2021/04/16 16:12:27;;;;;;;10.15;1.70;;;;;;;;;;5154476;27;20094;-79
2021/04/16 16:14:58;;;;;;;2.55;1.60;;;;;;;;;;5152828;27;20051;-81
2021/04/16 16:17:25;;;;;;;2.97;2.30;;;;;;;;;;5144481;27;20027;-81
2021/04/16 16:19:51;;;;;;;6.10;2.50;;;;;;;;;;5139935;27;20482;-75
2021/04/16 16:22:18;;;;;;;3.25;1.98;;;;;;;;;;5150211;27;20034;-74
2021/04/16 16:24:44;;;;;;;3.33;1.88;;;;;;;;;;5150858;27;20125;-77
2021/04/16 16:27:14;;;;;;;3.78;1.85;;;;;;;;;;5152119;27;20058;-79
2021/04/16 16:29:40;;;;;;;5.70;2.30;;;;;;;;;;5148720;27;20034;-77
2021/04/16 16:32:12;;;;;;;1.98;1.38;;;;;;;;;;5152640;27;20030;-77
2021/04/16 16:34:38;;;;;;;5.22;3.15;;;;;;;;;;5155912;27;20492;-77
2021/04/16 16:37:04;;;;;;;4.05;2.00;;;;;;;;;;5123922;27;20042;-79
2021/04/16 16:39:30;;;;;;;2.03;1.17;;;;;;;;;;5131621;27;20043;-78
2021/04/16 16:41:56;;;;;;;4.78;1.65;;;;;;;;;;5133472;27;20654;-78
2021/04/16 16:44:22;;;;;;;1.83;1.30;;;;;;;;;;5113882;27;20023;-78
2021/04/16 16:46:49;;;;;;;2.70;1.55;;;;;;;;;;5115305;28;20065;-79
2021/04/16 16:49:15;;;;;;;2.97;1.38;;;;;;;;;;5110947;28;20061;-78
2021/04/16 16:51:41;;;;;;;4.45;1.50;;;;;;;;;;5110464;27;20016;-79
2021/04/16 16:54:07;;;;;;;3.58;1.60;;;;;;;;;;5126543;27;20087;-80
2021/04/16 16:56:34;;;;;;;2.70;1.70;;;;;;;;;;5093835;28;20123;-78
2021/04/16 16:59:00;;;;;;;2.38;1.33;;;;;;;;;;5110420;28;20070;-79
2021/04/16 17:01:28;;;;;;;5.90;2.38;;;;;;;;;;5126186;27;20020;-78
2021/04/16 17:03:54;;;;;;;3.30;2.60;;;;;;;;;;5109808;28;20102;-79
2021/04/16 17:06:22;;;;;;;4.00;2.08;;;;;;;;;;5126161;27;20031;-79
2021/04/16 17:08:48;;;;;;;6.80;2.30;;;;;;;;;;5110790;28;20031;-78
2021/04/16 17:11:16;;;;;;;5.25;2.40;;;;;;;;;;5093795;27;20098;-80
2021/04/16 17:13:42;;;;;;;4.38;2.60;;;;;;;;;;5124467;27;20111;-80
2021/04/16 17:16:10;;;;;;;7.25;3.70;;;;;;;;;;5151345;27;20118;-80
2021/04/16 17:18:36;;;;;;;10.20;6.82;;;;;;;;;;5152753;27;20470;-80
2021/04/16 17:21:03;;;;;;;7.68;4.65;;;;;;;;;;5153653;27;20026;-80
2021/04/16 17:23:29;;;;;;;6.97;3.75;;;;;;;;;;5152368;27;20026;-80
2021/04/16 17:25:56;;;;;;;9.38;5.07;;;;;;;;;;5136938;27;20019;-82
2021/04/16 17:28:27;;;;;;;3.38;2.33;;;;;;;;;;5153271;27;20320;-80
2021/04/16 17:30:53;;;;;;;2.80;1.80;;;;;;;;;;5139697;27;20110;-78
2021/04/16 17:33:20;;;;;;;3.58;1.75;;;;;;;;;;5130781;27;20495;-80
2021/04/16 17:35:46;;;;;;;2.45;1.73;;;;;;;;;;5131064;27;20030;-79
2021/04/16 17:38:12;;;;;;;9.90;2.30;;;;;;;;;;5130443;28;20023;-80
2021/04/16 17:40:39;;;;;;;2.65;1.60;;;;;;;;;;5129884;28;20064;-78
2021/04/16 17:43:06;;;;;;;2.25;1.10;;;;;;;;;;5136217;27;20058;-78
2021/04/16 17:45:34;;;;;;;2.53;1.25;;;;;;;;;;5143790;27;20091;-78
2021/04/16 17:48:02;;;;;;;2.30;1.60;;;;;;;;;;5149728;27;20019;-81
2021/04/16 17:50:30;;;;;;;6.82;2.30;;;;;;;;;;5131614;27;20062;-81
2021/04/16 17:52:57;;;;;;;4.93;1.50;;;;;;;;;;5120496;27;20020;-80
2021/04/16 17:55:23;;;;;;;2.78;1.70;;;;;;;;;;5127547;27;20046;-80
2021/04/16 17:57:49;;;;;;;2.88;1.60;;;;;;;;;;5115891;27;20041;-81
2021/04/16 18:00:16;;;;;;;2.55;1.70;;;;;;;;;;5130926;27;20041;-79
2021/04/16 18:02:44;;;;;;;2.55;1.50;;;;;;;;;;5131769;27;20026;-80
2021/04/16 18:05:11;;;;;;;2.03;1.42;;;;;;;;;;5136213;27;20019;-79
2021/04/16 18:07:39;;;;;;;4.18;1.27;;;;;;;;;;5128768;27;20062;-79
2021/04/16 18:10:10;;;;;;;2.90;1.55;;;;;;;;;;5117956;28;20030;-80
2021/04/16 18:12:36;;;;;;;4.60;2.55;;;;;;;;;;5118263;28;20084;-78
2021/04/16 18:15:02;;;;;;;4.68;2.58;;;;;;;;;;5114027;28;20024;-77
2021/04/16 18:17:28;;;;;;;2.95;1.80;;;;;;;;;;5113812;28;20031;-78
2021/04/16 18:19:54;;;;;;;4.55;2.20;;;;;;;;;;5119759;27;20027;-80
2021/04/16 18:22:29;;;;;;;4.15;1.80;;;;;;;;;;5091567;22;20037;-78
2021/04/16 18:24:56;;;;;;;3.65;2.03;;;;;;;;;;5030465;28;20017;-75
2021/04/16 18:27:24;;;;;;;3.90;1.42;;;;;;;;;;5029650;28;20541;-76
2021/04/16 18:29:54;;;;;;;2.72;1.65;;;;;;;;;;5029146;28;20041;-76
2021/04/16 18:32:21;;;;;;;4.25;2.13;;;;;;;;;;5028666;28;20393;-76
2021/04/16 18:34:47;;;;;;;4.00;1.95;;;;;;;;;;5030302;28;20026;-79
2021/04/16 18:37:18;;;;;;;3.08;1.98;;;;;;;;;;5030970;28;20032;-77
2021/04/16 18:39:55;;;;;;;4.43;2.80;;;;;;;;;;5030332;28;20018;-77
2021/04/16 18:42:22;;;;;;;4.72;2.17;;;;;;;;;;5031009;28;20112;-76
2021/04/16 18:44:50;;;;;;;3.78;2.40;;;;;;;;;;5030193;28;20113;-76
2021/04/16 18:47:16;;;;;;;4.40;2.28;;;;;;;;;;5030977;28;20032;-76
2021/04/16 18:49:42;;;;;;;5.10;2.03;;;;;;;;;;5036828;28;20121;-76
2021/04/16 18:52:30;;;;;;;5.70;2.40;;;;;;;;;;5035110;28;20055;-74
2021/04/16 18:54:57;;;;;;;7.40;2.83;;;;;;;;;;5035764;28;20021;-77
